createdAt,value
2018-11-13T00:01:46.350Z,37.37
2018-11-13T00:04:16.670Z,35.17
2018-11-13T00:06:46.795Z,35.90
2018-11-13T00:09:17.004Z,37.20
2018-11-13T00:11:47.330Z,44.37
2018-11-13T00:14:21.021Z,44.83
2018-11-13T00:16:53.511Z,41.30
2018-11-13T00:19:24.459Z,51.07
2018-11-13T00:21:57.239Z,58.10
2018-11-13T00:24:29.810Z,63.63
2018-11-13T00:27:00.014Z,64.57
2018-11-13T00:29:31.590Z,61.37
2018-11-13T00:32:01.801Z,68.93
2018-11-13T00:34:31.713Z,73.90
2018-11-13T00:37:01.628Z,64.17
2018-11-13T00:39:32.263Z,65.60
2018-11-13T00:42:02.818Z,60.63
2018-11-13T00:44:32.799Z,58.50
2018-11-13T00:47:02.919Z,60.93
2018-11-13T00:49:33.249Z,57.93
2018-11-13T00:52:03.168Z,58.30
2018-11-13T00:54:33.277Z,48.23
2018-11-13T00:57:03.299Z,51.60
2018-11-13T00:59:33.196Z,48.83
2018-11-13T01:02:03.683Z,47.07
2018-11-13T01:04:33.547Z,52.10
2018-11-13T01:07:03.469Z,44.97
2018-11-13T01:09:33.376Z,47.80
2018-11-13T01:12:03.187Z,40.40
2018-11-13T01:14:33.099Z,42.47
2018-11-13T01:17:02.909Z,44.87
2018-11-13T01:19:32.730Z,35.53
2018-11-13T01:22:03.357Z,37.50
2018-11-13T01:24:33.169Z,47.37
2018-11-13T01:27:03.077Z,37.80
2018-11-13T01:29:33.809Z,36.10
2018-11-13T01:32:04.239Z,42.20
2018-11-13T01:34:34.457Z,41.10
2018-11-13T01:37:04.579Z,43.97
2018-11-13T01:39:34.799Z,37.00
2018-11-13T01:42:04.817Z,46.80
2018-11-13T01:44:35.246Z,37.10
2018-11-13T01:47:05.049Z,43.03
2018-11-13T01:49:35.602Z,37.17
2018-11-13T01:52:05.699Z,39.70
2018-11-13T01:54:35.719Z,38.97
2018-11-13T01:57:05.879Z,37.23
2018-11-13T01:59:35.857Z,37.20
2018-11-13T02:02:05.869Z,39.33
2018-11-13T02:04:35.791Z,39.07
2018-11-13T02:07:05.799Z,37.83
2018-11-13T02:09:35.824Z,33.30
2018-11-13T02:12:05.938Z,34.77
2018-11-13T02:14:35.854Z,35.13
2018-11-13T02:17:05.459Z,35.07
2018-11-13T02:19:35.889Z,35.53
2018-11-13T02:22:06.206Z,35.90
2018-11-13T02:24:36.118Z,36.97
2018-11-13T02:27:06.449Z,34.90
2018-11-13T02:29:36.456Z,38.53
2018-11-13T02:32:06.789Z,37.50
2018-11-13T02:34:36.804Z,35.97
2018-11-13T02:37:07.329Z,42.47
2018-11-13T02:39:37.449Z,40.30
2018-11-13T02:42:07.769Z,40.13
2018-11-13T02:44:37.802Z,41.87
2018-11-13T02:47:08.937Z,38.37
2018-11-13T02:49:38.948Z,38.77
2018-11-13T02:52:08.767Z,39.43
2018-11-13T02:54:38.469Z,39.23
2018-11-13T02:57:09.012Z,37.30
2018-11-13T02:59:38.708Z,39.73
2018-11-13T03:02:09.232Z,42.00
2018-11-13T03:04:39.356Z,40.67
2018-11-13T03:07:09.879Z,39.33
2018-11-13T03:09:40.098Z,40.10
2018-11-13T03:12:10.233Z,37.37
2018-11-13T03:14:40.853Z,39.13
2018-11-13T03:17:10.768Z,44.83
2018-11-13T03:19:40.780Z,43.20
2018-11-13T03:22:11.209Z,49.47
2018-11-13T03:24:41.128Z,44.13
2018-11-13T03:27:11.357Z,54.20
2018-11-13T03:29:41.668Z,56.70
2018-11-13T03:32:11.891Z,56.10
2018-11-13T03:34:42.009Z,49.83
2018-11-13T03:37:11.816Z,48.23
2018-11-13T03:39:41.839Z,52.57
2018-11-13T03:42:12.371Z,49.93
2018-11-13T03:44:42.787Z,46.03
2018-11-13T03:47:13.316Z,49.37
2018-11-13T03:49:43.848Z,53.17
2018-11-13T03:52:13.866Z,46.57
2018-11-13T03:54:43.777Z,51.33
2018-11-13T03:57:13.896Z,56.23
2018-11-13T03:59:43.808Z,44.57
2018-11-13T04:02:13.827Z,57.43
2018-11-13T04:04:44.149Z,54.73
2018-11-13T04:07:14.281Z,52.10
2018-11-13T04:09:44.190Z,49.07
2018-11-13T04:12:14.408Z,48.03
2018-11-13T04:14:44.421Z,44.03
2018-11-13T04:17:14.338Z,43.30
2018-11-13T04:19:44.349Z,41.90
2018-11-13T04:22:14.271Z,41.60
2018-11-13T04:24:44.280Z,45.27
2018-11-13T04:27:14.302Z,44.73
2018-11-13T04:29:44.012Z,46.43
2018-11-13T04:32:13.929Z,42.30
2018-11-13T04:34:44.349Z,40.13
2018-11-13T04:37:14.385Z,39.13
2018-11-13T04:39:44.792Z,38.00
2018-11-13T04:42:15.729Z,40.97
2018-11-13T04:44:45.864Z,41.67
2018-11-13T04:47:15.767Z,40.67
2018-11-13T04:49:45.981Z,39.87
2018-11-13T04:52:15.790Z,41.00
2018-11-13T04:54:46.117Z,46.73
2018-11-13T04:57:16.339Z,45.97
2018-11-13T04:59:46.253Z,38.63
2018-11-13T05:02:16.068Z,38.47
2018-11-13T05:04:46.289Z,42.40
2018-11-13T05:07:16.100Z,45.43
2018-11-13T05:09:45.913Z,39.07
2018-11-13T05:12:16.019Z,37.47
2018-11-13T05:14:46.149Z,40.50
2018-11-13T05:17:16.064Z,63.40
2018-11-13T05:19:46.189Z,60.73
2018-11-13T05:22:16.008Z,52.13
2018-11-13T05:24:45.809Z,48.13
2018-11-13T05:27:15.841Z,49.87
2018-11-13T05:29:45.741Z,49.37
2018-11-13T05:32:15.861Z,49.77
2018-11-13T05:34:45.870Z,43.73
2018-11-13T05:37:15.489Z,46.07
2018-11-13T05:39:45.289Z,41.10
2018-11-13T05:42:15.821Z,45.10
2018-11-13T05:44:45.831Z,37.70
2018-11-13T05:47:16.219Z,48.03
2018-11-13T05:49:47.096Z,47.60
2018-11-13T05:52:17.830Z,40.03
2018-11-13T05:54:47.737Z,45.97
2018-11-13T05:57:18.382Z,49.80
2018-11-13T05:59:48.221Z,44.13
2018-11-13T06:02:18.109Z,44.87
2018-11-13T06:04:48.222Z,47.17
2018-11-13T06:07:18.541Z,44.77
2018-11-13T06:09:49.090Z,45.40
2018-11-13T06:12:19.804Z,44.27
2018-11-13T06:14:49.817Z,41.23
2018-11-13T06:17:20.861Z,43.43
2018-11-13T06:19:51.490Z,41.80
2018-11-13T06:22:22.018Z,38.30
2018-11-13T06:24:52.354Z,40.87
2018-11-13T06:27:22.261Z,41.23
2018-11-13T06:29:52.791Z,36.80
2018-11-13T06:32:22.489Z,37.80
2018-11-13T06:34:52.322Z,40.23
2018-11-13T06:37:22.650Z,43.07
2018-11-13T06:39:52.861Z,41.50
2018-11-13T06:42:23.303Z,45.77
2018-11-13T06:44:53.941Z,39.87
2018-11-13T06:47:24.349Z,47.13
2018-11-13T06:49:54.349Z,51.27
2018-11-13T06:52:25.209Z,51.20
2018-11-13T06:55:00.017Z,50.27
2018-11-13T06:57:31.472Z,50.80
2018-11-13T07:00:02.211Z,50.73
2018-11-13T07:02:32.722Z,52.63
2018-11-13T07:05:02.583Z,60.60
2018-11-13T07:07:32.961Z,53.53
2018-11-13T07:10:02.977Z,53.50
2018-11-13T07:12:32.686Z,51.77
2018-11-13T07:15:02.928Z,53.97
2018-11-13T07:17:33.135Z,56.00
2018-11-13T07:20:03.367Z,47.67
2018-11-13T07:22:33.061Z,52.00
2018-11-13T07:25:02.975Z,51.37
2018-11-13T07:27:32.982Z,48.63
2018-11-13T07:30:02.615Z,45.23
2018-11-13T07:32:32.406Z,46.27
2018-11-13T07:35:02.530Z,44.10
2018-11-13T07:37:32.578Z,46.37
2018-11-13T07:40:03.188Z,47.17
2018-11-13T07:42:33.929Z,47.87
2018-11-13T07:45:04.147Z,46.47
2018-11-13T07:47:34.377Z,60.40
2018-11-13T07:50:04.284Z,67.40
2018-11-13T07:52:34.806Z,45.30
2018-11-13T07:55:04.612Z,50.83
2018-11-13T07:57:34.820Z,47.03
2018-11-13T08:00:05.039Z,47.43
2018-11-13T08:02:35.268Z,49.10
2018-11-13T08:05:06.412Z,44.23
2018-11-13T08:07:36.545Z,43.77
2018-11-13T08:10:07.575Z,44.17
2018-11-13T08:12:37.807Z,45.47
2018-11-13T08:15:08.831Z,45.07
2018-11-13T08:17:38.851Z,44.83
2018-11-13T08:20:09.379Z,40.23
2018-11-13T08:22:39.291Z,42.87
2018-11-13T08:25:09.661Z,37.43
2018-11-13T08:27:40.373Z,37.27
2018-11-13T08:30:11.392Z,39.40
2018-11-13T08:32:41.424Z,35.87
2018-11-13T08:35:11.631Z,36.37
2018-11-13T08:37:41.950Z,32.90
2018-11-13T08:40:16.270Z,35.03
2018-11-13T08:42:46.824Z,37.57
2018-11-13T08:45:17.024Z,34.13
2018-11-13T08:47:47.264Z,36.90
2018-11-13T08:50:17.246Z,34.73
2018-11-13T08:52:47.375Z,34.20
2018-11-13T08:55:17.700Z,36.10
2018-11-13T08:57:47.934Z,31.13
2018-11-13T09:00:19.186Z,34.33
2018-11-13T09:02:49.797Z,33.90
2018-11-13T09:05:19.819Z,32.87
2018-11-13T09:07:49.826Z,30.07
2018-11-13T09:10:19.744Z,31.60
2018-11-13T09:12:49.455Z,34.40
2018-11-13T09:15:20.624Z,27.33
2018-11-13T09:17:50.409Z,28.27
2018-11-13T09:20:21.364Z,29.00
2018-11-13T09:22:51.363Z,27.63
2018-11-13T09:25:21.997Z,29.37
2018-11-13T09:27:51.604Z,27.37
2018-11-13T09:30:22.173Z,30.90
2018-11-13T09:32:51.979Z,28.77
2018-11-13T09:35:21.666Z,27.60
2018-11-13T09:37:51.255Z,27.43
2018-11-13T09:40:21.583Z,26.97
2018-11-13T09:42:53.750Z,28.93
2018-11-13T09:45:23.148Z,27.43
2018-11-13T09:47:53.007Z,27.83
2018-11-13T09:50:22.777Z,29.07
2018-11-13T09:52:52.998Z,27.53
2018-11-13T09:55:23.745Z,24.77
2018-11-13T09:57:53.764Z,28.30
2018-11-13T10:00:27.596Z,26.83
2018-11-13T10:03:00.690Z,26.30
2018-11-13T10:05:30.591Z,25.97
2018-11-13T10:08:01.182Z,24.70
2018-11-13T10:10:31.261Z,23.80
2018-11-13T10:13:01.629Z,25.67
2018-11-13T10:15:32.388Z,23.57
2018-11-13T10:18:02.936Z,24.83
2018-11-13T10:20:32.910Z,24.63
2018-11-13T10:23:02.954Z,24.73
2018-11-13T10:25:33.025Z,26.87
2018-11-13T10:28:03.173Z,36.13
2018-11-13T10:30:33.275Z,39.63
2018-11-13T10:33:02.985Z,28.07
2018-11-13T10:35:32.802Z,25.20
2018-11-13T10:38:02.527Z,25.17
2018-11-13T10:40:32.534Z,26.83
2018-11-13T10:43:02.022Z,27.17
2018-11-13T10:45:32.147Z,25.63
2018-11-13T10:48:02.024Z,23.73
2018-11-13T10:50:31.419Z,23.73
2018-11-13T10:53:00.978Z,26.50
2018-11-13T10:55:30.887Z,24.33
2018-11-13T10:58:01.109Z,23.67
2018-11-13T11:00:35.625Z,25.57
2018-11-13T11:03:09.752Z,31.20
2018-11-13T11:05:40.013Z,26.30
2018-11-13T11:08:09.874Z,26.43
2018-11-13T11:10:39.790Z,30.77
2018-11-13T11:13:10.176Z,28.77
2018-11-13T11:15:39.414Z,28.17
2018-11-13T11:18:09.808Z,28.97
2018-11-13T11:20:39.853Z,27.50
2018-11-13T11:23:09.627Z,28.63
2018-11-13T11:25:39.611Z,27.53
2018-11-13T11:28:09.985Z,31.60
2018-11-13T11:30:39.849Z,31.57
2018-11-13T11:33:11.268Z,29.23
2018-11-13T11:35:41.179Z,27.83
2018-11-13T11:38:12.627Z,24.33
2018-11-13T11:40:42.965Z,30.97
2018-11-13T11:43:12.875Z,25.90
2018-11-13T11:45:43.015Z,26.53
2018-11-13T11:48:13.624Z,32.30
2018-11-13T11:50:43.969Z,31.27
2018-11-13T11:53:13.971Z,27.97
2018-11-13T11:55:44.004Z,33.57
2018-11-13T11:58:14.005Z,33.63
2018-11-13T12:00:43.963Z,31.13
2018-11-13T12:03:13.945Z,32.67
2018-11-13T12:05:45.574Z,32.33
2018-11-13T12:08:15.924Z,30.63
2018-11-13T12:10:45.954Z,29.97
2018-11-13T12:13:15.945Z,30.20
2018-11-13T12:15:45.965Z,29.50
2018-11-13T12:18:15.785Z,32.63
2018-11-13T12:20:45.368Z,31.23
2018-11-13T12:23:15.304Z,32.53
2018-11-13T12:25:46.396Z,33.50
2018-11-13T12:28:16.338Z,31.07
2018-11-13T12:30:46.263Z,31.53
2018-11-13T12:33:16.305Z,43.80
2018-11-13T12:35:46.305Z,47.53
2018-11-13T12:38:16.204Z,35.63
2018-11-13T12:40:46.015Z,35.47
2018-11-13T12:43:17.161Z,35.23
2018-11-13T12:45:47.022Z,38.63
2018-11-13T12:48:16.804Z,37.53
2018-11-13T12:50:50.485Z,40.77
2018-11-13T12:53:20.396Z,41.43
2018-11-13T12:55:50.076Z,40.77
2018-11-13T12:58:19.824Z,42.07
2018-11-13T13:00:49.844Z,40.50
2018-11-13T13:03:20.287Z,42.70
2018-11-13T13:05:52.225Z,49.20
2018-11-13T13:08:22.566Z,46.37
2018-11-13T13:10:52.586Z,48.27
2018-11-13T13:13:22.905Z,48.80
2018-11-13T13:15:55.459Z,44.03
2018-11-13T13:18:25.806Z,44.37
2018-11-13T13:20:55.845Z,41.53
2018-11-13T13:23:26.650Z,42.03
2018-11-13T13:25:56.413Z,35.73
2018-11-13T13:28:26.463Z,33.60
2018-11-13T13:31:00.370Z,41.53
2018-11-13T13:33:30.918Z,36.23
2018-11-13T13:36:04.508Z,44.30
2018-11-13T13:38:36.340Z,44.17
2018-11-13T13:41:07.209Z,50.70
2018-11-13T13:43:45.034Z,41.70
2018-11-13T13:46:20.584Z,43.63
2018-11-13T13:48:55.490Z,48.40
2018-11-13T13:51:33.894Z,47.30
2018-11-13T13:54:12.715Z,45.47
2018-11-13T13:57:00.033Z,47.83
2018-11-13T13:59:43.497Z,48.40
2018-11-13T14:02:19.517Z,41.53
2018-11-13T14:05:09.036Z,41.37
2018-11-13T14:07:52.434Z,46.40
2018-11-13T14:10:32.065Z,43.23
2018-11-13T14:13:08.442Z,53.30
2018-11-13T14:15:47.270Z,52.30
2018-11-13T14:18:34.685Z,45.40
2018-11-13T14:21:04.556Z,46.17
2018-11-13T14:23:35.758Z,44.63
2018-11-13T14:26:05.445Z,42.20
2018-11-13T14:28:54.220Z,40.03
2018-11-13T14:31:24.937Z,31.33
2018-11-13T14:33:54.854Z,25.33
2018-11-13T14:36:42.899Z,23.37
2018-11-13T14:39:18.014Z,21.80
2018-11-13T14:41:54.492Z,26.13
2018-11-13T14:44:32.599Z,27.07
2018-11-13T14:47:14.020Z,25.87
2018-11-13T14:49:55.774Z,34.23
2018-11-13T14:52:32.347Z,29.70
2018-11-13T14:55:28.267Z,34.67
2018-11-13T14:58:06.782Z,39.53
2018-11-13T15:00:43.163Z,36.53
2018-11-13T15:03:20.338Z,32.87
2018-11-13T15:05:57.017Z,37.83
2018-11-13T15:08:34.476Z,30.80
2018-11-13T15:11:10.562Z,34.47
2018-11-13T15:13:49.791Z,29.90
2018-11-13T15:16:26.774Z,26.60
2018-11-13T15:19:03.950Z,31.57
2018-11-13T15:21:40.029Z,28.63
2018-11-13T15:24:21.135Z,40.93
2018-11-13T15:27:01.553Z,39.30
2018-11-13T15:29:40.794Z,37.77
2018-11-13T15:32:17.665Z,39.50
2018-11-13T15:35:08.265Z,25.47
2018-11-13T15:38:08.024Z,30.83
2018-11-13T15:40:42.395Z,26.93
2018-11-13T15:43:22.854Z,25.43
2018-11-13T15:46:15.013Z,25.50
2018-11-13T15:49:09.065Z,34.37
2018-11-13T15:51:49.884Z,38.57
2018-11-13T15:54:27.222Z,31.07
2018-11-13T15:56:59.304Z,27.17
2018-11-13T16:02:55.024Z,31.43
2018-11-13T16:05:58.126Z,29.43
2018-11-13T16:08:28.446Z,29.77
2018-11-13T16:10:58.583Z,31.25
2018-11-13T16:13:28.474Z,31.67
2018-11-13T16:15:59.113Z,33.43
2018-11-13T16:18:44.068Z,32.93
2018-11-13T16:21:20.084Z,37.83
2018-11-13T16:23:51.284Z,36.13
2018-11-13T16:26:21.198Z,38.20
2018-11-13T16:28:51.426Z,40.83
2018-11-13T16:31:21.636Z,37.33
2018-11-13T16:33:52.985Z,38.53
2018-11-13T16:36:22.765Z,41.27
2018-11-13T16:38:53.025Z,38.60
2018-11-13T16:41:23.497Z,35.47
2018-11-13T16:43:53.464Z,37.20
2018-11-13T16:46:23.784Z,37.83
2018-11-13T16:48:58.916Z,39.77
2018-11-13T16:51:37.034Z,38.23
2018-11-13T16:54:08.418Z,36.80
2018-11-13T16:56:42.785Z,40.67
2018-11-13T16:59:45.376Z,45.63
2018-11-13T17:02:15.550Z,41.20
2018-11-13T17:04:47.358Z,45.23
2018-11-13T17:07:18.181Z,40.43
2018-11-13T17:09:51.786Z,41.60
2018-11-13T17:12:21.847Z,47.17
2018-11-13T17:14:52.225Z,43.20
2018-11-13T17:17:22.469Z,44.03
2018-11-13T17:19:52.979Z,48.23
2018-11-13T17:22:23.337Z,42.70
2018-11-13T17:24:53.219Z,44.67
2018-11-13T17:27:23.243Z,44.97
2018-11-13T17:29:53.351Z,35.83
2018-11-13T17:32:23.784Z,31.50
2018-11-13T17:34:54.206Z,31.90
2018-11-13T17:37:27.150Z,27.87
2018-11-13T17:39:57.960Z,31.17
2018-11-13T17:42:28.245Z,27.90
2018-11-13T17:44:59.905Z,25.20
2018-11-13T17:47:30.247Z,26.70
2018-11-13T17:50:00.358Z,23.57
2018-11-13T17:52:30.665Z,24.37
2018-11-13T17:55:00.685Z,24.33
2018-11-13T17:57:30.695Z,30.40
2018-11-13T18:00:00.824Z,25.33
2018-11-13T18:02:31.984Z,28.00
2018-11-13T18:05:03.114Z,30.13
2018-11-13T18:07:32.968Z,28.97
2018-11-13T18:10:03.138Z,29.57
2018-11-13T18:12:36.228Z,30.73
2018-11-13T18:15:06.550Z,35.03
2018-11-13T18:17:36.975Z,30.27
2018-11-13T18:20:07.915Z,34.67
2018-11-13T18:22:38.245Z,36.13
2018-11-13T18:25:08.865Z,34.63
2018-11-13T18:27:39.708Z,28.87
2018-11-13T18:30:13.423Z,30.23
2018-11-13T18:32:45.267Z,31.60
2018-11-13T18:35:17.225Z,29.60
2018-11-13T18:37:47.721Z,33.00
2018-11-13T18:40:20.856Z,33.83
2018-11-13T18:42:51.486Z,34.97
2018-11-13T18:45:25.087Z,39.93
2018-11-13T18:47:57.443Z,33.57
2018-11-13T18:50:35.967Z,33.97
2018-11-13T18:53:07.414Z,33.40
2018-11-13T18:55:38.040Z,30.57
2018-11-13T18:58:12.462Z,29.27
2018-11-13T19:00:42.998Z,32.47
2018-11-13T19:03:14.020Z,29.17
2018-11-13T19:05:47.628Z,27.90
2018-11-13T19:08:18.677Z,30.33
2018-11-13T19:10:49.568Z,27.77
2018-11-13T19:13:23.411Z,25.20
2018-11-13T19:15:57.425Z,28.77
2018-11-13T19:18:28.320Z,30.07
2018-11-13T19:21:00.834Z,31.67
2018-11-13T19:23:32.905Z,33.00
2018-11-13T19:26:06.805Z,34.43
2018-11-13T19:28:37.647Z,29.77
2018-11-13T19:31:09.462Z,32.20
2018-11-13T19:33:44.354Z,30.57
2018-11-13T19:36:16.494Z,30.63
2018-11-13T19:38:47.878Z,26.47
2018-11-13T19:41:20.032Z,25.43
2018-11-13T19:43:53.313Z,26.90
2018-11-13T19:46:27.543Z,25.30
2018-11-13T19:48:57.539Z,24.37
2018-11-13T19:51:27.808Z,22.20
2018-11-13T19:53:58.257Z,22.03
2018-11-13T19:56:28.306Z,21.80
2018-11-13T19:59:01.598Z,23.10
2018-11-13T20:01:36.050Z,21.60
2018-11-13T20:04:08.787Z,22.53
2018-11-13T20:06:41.790Z,20.00
2018-11-13T20:09:12.944Z,18.60
2018-11-13T20:11:43.468Z,18.27
2018-11-13T20:14:13.883Z,20.47
2018-11-13T20:16:44.416Z,20.93
2018-11-13T20:19:14.836Z,22.50
2018-11-13T20:21:49.042Z,20.60
2018-11-13T20:24:22.262Z,20.43
2018-11-13T20:26:53.505Z,21.20
2018-11-13T20:29:23.506Z,21.97
2018-11-13T20:31:56.423Z,21.53
2018-11-13T20:34:27.239Z,18.80
2018-11-13T20:37:00.517Z,18.80
2018-11-13T20:39:38.108Z,20.47
2018-11-13T20:42:12.635Z,21.80
2018-11-13T20:44:44.598Z,18.90
2018-11-13T20:47:17.797Z,20.40
2018-11-13T20:49:48.319Z,21.70
2018-11-13T20:52:20.484Z,21.77
2018-11-13T20:54:50.395Z,22.40
2018-11-13T20:57:21.335Z,22.60
2018-11-13T20:59:52.271Z,24.53
2018-11-13T21:02:23.511Z,27.30
2018-11-13T21:04:53.014Z,24.87
2018-11-13T21:07:27.347Z,21.80
2018-11-13T21:09:58.904Z,23.60
2018-11-13T21:12:29.422Z,25.07
2018-11-13T21:15:01.752Z,21.37
2018-11-13T21:17:34.981Z,20.83
2018-11-13T21:20:05.202Z,19.50
2018-11-13T21:22:35.733Z,18.17
2018-11-13T21:25:06.160Z,17.30
2018-11-13T21:27:36.490Z,16.70
2018-11-13T21:30:08.477Z,18.67
2018-11-13T21:32:38.569Z,24.43
2018-11-13T21:35:10.955Z,18.40
2018-11-13T21:37:42.320Z,20.07
2018-11-13T21:40:14.045Z,21.83
2018-11-13T21:42:44.772Z,20.77
2018-11-13T21:45:14.993Z,21.50
2018-11-13T21:47:44.917Z,15.90
2018-11-13T21:50:15.438Z,17.70
2018-11-13T21:52:45.149Z,15.60
2018-11-13T21:55:16.361Z,17.63
2018-11-13T21:57:46.409Z,14.83
2018-11-13T22:00:18.164Z,15.67
2018-11-13T22:02:53.086Z,15.53
2018-11-13T22:05:24.032Z,14.87
2018-11-13T22:07:54.156Z,13.70
2018-11-13T22:10:23.964Z,13.80
2018-11-13T22:12:54.138Z,10.83
2018-11-13T22:15:24.821Z,12.97
2018-11-13T22:17:54.532Z,11.90
2018-11-13T22:20:24.750Z,7.57
2018-11-13T22:22:55.172Z,8.97
2018-11-13T22:25:25.930Z,6.73
2018-11-13T22:27:56.925Z,8.53
2018-11-13T22:30:28.010Z,9.23
2018-11-13T22:32:57.799Z,9.53
2018-11-13T22:35:27.521Z,9.67
2018-11-13T22:37:57.030Z,8.60
2018-11-13T22:40:28.281Z,9.33
2018-11-13T22:42:58.492Z,8.73
2018-11-13T22:45:29.025Z,7.23
2018-11-13T22:47:59.139Z,6.87
2018-11-13T22:50:32.948Z,8.23
2018-11-13T22:53:02.659Z,7.47
2018-11-13T22:55:32.373Z,6.77
2018-11-13T22:58:02.793Z,7.47
2018-11-13T23:00:37.011Z,6.67
2018-11-13T23:03:07.638Z,9.13
2018-11-13T23:05:37.446Z,9.23
2018-11-13T23:08:07.268Z,10.10
2018-11-13T23:10:37.378Z,9.87
2018-11-13T23:13:07.022Z,8.23
2018-11-13T23:15:36.799Z,10.27
2018-11-13T23:18:06.823Z,11.13
2018-11-13T23:20:36.835Z,10.93
2018-11-13T23:23:06.649Z,7.63
2018-11-13T23:25:36.453Z,9.20
2018-11-13T23:28:06.438Z,9.73
2018-11-13T23:30:36.304Z,6.67
2018-11-13T23:33:06.880Z,7.23
2018-11-13T23:35:36.210Z,5.30
2018-11-13T23:38:06.033Z,5.17
2018-11-13T23:40:36.069Z,6.97
2018-11-13T23:43:05.555Z,6.27
2018-11-13T23:45:35.356Z,4.50
2018-11-13T23:48:04.962Z,6.47
2018-11-13T23:50:34.477Z,7.83
2018-11-13T23:53:03.971Z,6.83
2018-11-13T23:55:33.840Z,6.00
2018-11-13T23:58:03.699Z,6.27
